Portola Valley, California
Current Conditions -  °F | °C
As of 2:35 AM on Saturday 25 Oct 2014 (Local Time) from KSQL Reporting Station
Broken Clouds Broken Clouds  
Wind Chill: 66°   Ceiling: 5500
Heat Index: 66°   Visibility: 10mi
Dew Point: 54°   Wind: 12mph
Humidity: 64%   Direction: 160°SSE
Pressure: 29.93"   Gusts: NA
Location:  37.38°N, 122.24°W
Report Text: KSQL 250935Z AUTO 16010KT 10SM FEW043 BKN055 19/12 A2993 RMK AO2
Loading
Personal Weather Stations






























Interactive Weather Map
Tropical Storm Tracking
New forecast layout! Learn more

10-Day Weather Forecast

Advertisements
Track Severe Weather on mobile